Etusivu
METAR-TAF:

METAR-TAF

Lentoasemat :

Majuro, Majuro Atoll, Marshallinsaaret

Amata Kabuan kansainvälinen lentoasema

Leveyspiiri: 07-04N, Pituuspiiri: 171-17E, korkeus merenpinnasta: 2 m

Tämänhetkinen sää

Tämä raportti tehtiin 14 minuuttia sitten, kello 00.59 UTC
Tuuli 14 kn idästä/koillisesta
Lämpötila 30°C
Kosteus 75%
Ilmanpaine 1010 hPa
Näkyvyys: 24.1 km
Muutamia pilviä 1500 ft:n korkeudessa
Hajanaisia pilviä 5000 ft:n korkeudessa
Hajanaisia pilviä 12000 ft:n korkeudessa
Hajonneita pilviä 30000 ft:n korkeudessa

METAR: PKMJ 250059Z 06014KT 15SM FEW015 SCT050 SCT120 BKN300 30/25 A2983

Aika: 13:13 (01:13 UTC)

Sääennuste

Tämä raportti tehtiin 1 tunti ja 53 minuuttia sitten, kello 23.20 UTC
Ennuste voimassa 25. päivästä klo 00 UTC - 25. päivään klo 24 UTC
Tuuli 11 kn idästä
Näkyvyys: 10 km
Muutamia pilviä 1500 ft:n korkeudessa
Hajanaisia pilviä 5000 ft:n korkeudessa
sadekuuroja näköpiirissä

TAF: PKMJ 242320Z 2500/2524 09011KT P6SM VCSH FEW015 SCT050

Säähavainnot ja -ennusteet yli 4000 lentoasemalta (METAR- ja TAF-raportit).

Käytössä olevat sääasemat on merkitty karttaan keltaisilla ja punaisilla pisteillä.

Aseta hiiri pisteen päälle nähdäksesi sääaseman nimen.

Klikkaa sitten nähdäksesi säähavainnot ja -ennusteet.

Kartan vaihtaminen: klikkaa mustalla rastilla varustettuja vihreitä pisteitä, niin voit zoomata sisään; viivalla varustettua vihreää pistettä, niin voit zoomata ulos tai vihreitä nuolia, niin pääset viereisille kartoille.


METAR-TAF: